Time;durP1;ratioP1;P1;durP2;ratioP2;P2;SDS_P1;SDS_P2;PMS_P1;PMS_P2;Temp;Humidity;BMP_temperature;BMP_pressure;BME280_temperature;BME280_humidity;BME280_pressure;Samples;Min_cycle;Max_cycle;Signal;HPM_P1;HPM_P2
2022/10/28 00:59:50;;;;;;;13.73;7.78;;;;;;;12.08;100.00;101613.19;6214545;23;20028;-96
2022/10/28 01:38:08;;;;;;;18.15;7.82;;;;;;;11.79;100.00;101599.91;6236860;23;20023;-96
2022/10/28 05:39:38;;;;;;;21.30;7.20;;;;;;;11.78;100.00;101539.19;6224693;22;20031;-93
2022/10/28 05:42:22;;;;;;;15.02;6.65;;;;;;;11.66;100.00;101529.41;6239718;22;20020;-92
2022/10/28 06:04:57;;;;;;;24.50;7.20;;;;;;;11.78;100.00;101549.94;6214139;23;20392;-92
2022/10/28 06:24:10;;;;;;;22.80;6.50;;;;;;;11.78;100.00;101568.72;6199492;23;20058;-92
2022/10/28 06:26:35;;;;;;;18.70;7.45;;;;;;;11.62;100.00;101548.91;6213966;23;20450;-92
2022/10/28 06:36:35;;;;;;;17.67;6.93;;;;;;;11.90;100.00;101572.09;6151014;23;20045;-92
2022/10/28 06:39:16;;;;;;;19.63;7.18;;;;;;;11.81;100.00;101547.56;6180480;22;20040;-92
2022/10/28 07:08:36;;;;;;;15.35;6.50;;;;;;;12.39;100.00;101559.84;6216054;23;20020;-92
2022/10/28 07:11:38;;;;;;;21.58;6.40;;;;;;;12.48;100.00;101565.59;6215883;23;20005;-92
2022/10/28 07:34:42;;;;;;;;;;;;;;;;;;;;;
2022/10/28 07:40:48;;;;;;;19.88;7.10;;;;;;;13.58;100.00;101591.31;6226698;22;20465;-91
2022/10/28 07:44:26;;;;;;;20.30;6.33;;;;;;;13.52;100.00;101569.97;6192392;23;20009;-91
2022/10/28 07:46:53;;;;;;;21.23;6.67;;;;;;;13.76;100.00;101582.00;6164258;23;20244;-92
2022/10/28 07:56:29;;;;;;;19.65;6.28;;;;;;;14.29;100.00;101581.16;6150733;23;20088;-91
2022/10/28 07:58:59;;;;;;;17.00;5.85;;;;;;;14.41;100.00;101577.41;6150154;23;20137;-92
2022/10/28 08:01:25;;;;;;;18.80;5.88;;;;;;;14.46;100.00;101566.63;6150338;23;20041;-93
2022/10/28 08:07:34;;;;;;;23.97;6.70;;;;;;;14.88;100.00;101579.16;6155879;23;20057;-92
2022/10/28 08:14:11;;;;;;;17.83;5.97;;;;;;;15.12;100.00;101584.81;6169637;23;20020;-91
2022/10/28 08:16:39;;;;;;;18.20;6.20;;;;;;;15.14;100.00;101563.78;6213035;23;20008;-91
2022/10/28 08:19:48;;;;;;;14.45;5.97;;;;;;;15.39;100.00;101593.72;6212990;23;20076;-90
2022/10/28 08:22:31;;;;;;;21.40;6.38;;;;;;;15.42;100.00;101587.78;6212956;23;20000;-93
2022/10/28 08:25:18;;;;;;;21.70;5.93;;;;;;;15.58;100.00;101602.09;6213277;23;20024;-96
2022/10/28 08:27:47;;;;;;;17.40;5.67;;;;;;;15.62;100.00;101591.53;6137380;22;20009;-96
2022/10/28 09:02:47;;;;;;;22.13;6.07;;;;;;;16.34;100.00;101585.91;6212267;23;20017;-90
2022/10/28 09:09:33;;;;;;;17.30;5.50;;;;;;;16.74;100.00;101588.66;6020969;23;20340;-94
2022/10/28 09:12:40;;;;;;;16.73;5.20;;;;;;;17.08;100.00;101614.94;5919999;24;20262;-95
2022/10/28 09:26:14;;;;;;;13.07;5.05;;;;;;;18.06;100.00;101622.19;5865809;24;20038;-95
2022/10/28 09:32:41;;;;;;;17.52;4.70;;;;;;;18.60;98.70;101620.16;5922437;23;20024;-93
2022/10/28 09:56:50;;;;;;;17.83;4.20;;;;;;;18.70;95.95;101637.38;5950508;24;20039;-95
2022/10/28 10:13:58;;;;;;;14.50;4.60;;;;;;;19.04;91.08;101606.47;6210721;23;20349;-89
2022/10/28 10:21:01;;;;;;;17.45;4.40;;;;;;;19.33;88.94;101629.91;6147538;23;20017;-90
2022/10/28 10:23:37;;;;;;;22.83;4.30;;;;;;;19.46;88.18;101640.00;6153840;23;20073;-89
2022/10/28 10:55:39;;;;;;;15.93;3.95;;;;;;;20.75;79.30;101600.47;6210021;22;20357;-90
2022/10/28 11:01:48;;;;;;;13.00;3.90;;;;;;;20.84;77.79;101594.00;6208859;23;20059;-90
2022/10/28 11:10:36;;;;;;;21.57;4.00;;;;;;;21.05;75.72;101609.84;6213544;23;20270;-91
2022/10/28 11:13:52;;;;;;;18.70;4.18;;;;;;;21.06;75.86;101599.72;6188598;23;20330;-91
2022/10/28 11:36:36;;;;;;;14.30;3.97;;;;;;;21.96;70.59;101587.84;6226451;22;20025;-91
2022/10/28 11:39:24;;;;;;;19.60;3.77;;;;;;;22.00;71.40;101588.78;6184183;23;20155;-91
2022/10/28 11:59:13;;;;;;;22.65;4.38;;;;;;;22.22;69.52;101593.34;6214981;22;20051;-89
2022/10/28 12:01:57;;;;;;;23.08;4.47;;;;;;;22.22;69.12;101596.06;6186032;23;20004;-91
2022/10/28 12:04:49;;;;;;;22.45;4.03;;;;;;;22.23;68.28;101603.13;6214852;23;20368;-92
2022/10/28 12:07:40;;;;;;;18.45;3.53;;;;;;;22.28;69.46;101599.44;6213195;23;20428;-96
2022/10/28 12:10:23;;;;;;;11.57;3.90;;;;;;;22.21;66.11;101612.75;6213305;23;20004;-92
2022/10/28 12:13:12;;;;;;;15.90;3.90;;;;;;;22.22;68.72;101622.53;6214355;23;20257;-92
2022/10/28 12:15:41;;;;;;;19.77;4.35;;;;;;;22.17;64.82;101615.31;6218464;23;20000;-92
2022/10/28 16:31:36;;;;;;;12.68;3.92;;;;;;;18.04;91.37;101792.50;6212092;23;20024;-91
2022/10/28 16:34:13;;;;;;;56.53;5.85;;;;;;;17.73;92.80;101772.94;6213796;23;20384;-91
2022/10/28 16:37:13;;;;;;;28.02;5.13;;;;;;;17.71;93.31;101787.56;6211957;23;20005;-90
2022/10/28 16:47:25;;;;;;;20.40;4.60;;;;;;;17.33;95.93;101795.44;6206631;22;20016;-91
2022/10/28 16:49:59;;;;;;;13.60;3.80;;;;;;;17.18;96.57;101768.41;6209114;23;20009;-91
2022/10/28 16:52:29;;;;;;;14.45;4.20;;;;;;;17.30;97.17;101792.47;6211602;23;20405;-92
2022/10/28 16:54:55;;;;;;;13.15;4.10;;;;;;;17.12;97.90;101766.84;6205847;23;20040;-89
2022/10/28 16:57:21;;;;;;;13.83;4.40;;;;;;;17.16;98.09;101789.59;6209570;23;20112;-89
2022/10/28 16:59:49;;;;;;;10.88;3.75;;;;;;;17.07;98.41;101784.72;6212026;23;20048;-89
2022/10/28 17:02:59;;;;;;;11.85;4.10;;;;;;;16.95;97.47;101779.66;6211152;23;20463;-88
2022/10/28 17:05:24;;;;;;;16.85;4.20;;;;;;;17.04;99.22;101806.94;6146475;23;20013;-88
2022/10/28 17:07:50;;;;;;;18.40;4.47;;;;;;;16.97;99.73;101811.88;6199421;23;20443;-92
2022/10/28 17:10:18;;;;;;;18.63;4.20;;;;;;;16.87;100.00;101809.16;6211416;23;20412;-90
2022/10/28 17:12:43;;;;;;;23.00;4.78;;;;;;;16.77;100.00;101800.00;6212750;23;20340;-91
2022/10/28 17:15:12;;;;;;;24.13;6.83;;;;;;;16.83;100.00;101818.91;6212812;23;20001;-91
2022/10/28 17:17:37;;;;;;;13.80;4.43;;;;;;;16.73;100.00;101812.47;6216123;23;20005;-92
2022/10/28 17:20:03;;;;;;;12.77;4.40;;;;;;;16.65;100.00;101808.41;6215249;23;20013;-91
2022/10/28 17:22:28;;;;;;;17.52;4.30;;;;;;;16.66;100.00;101820.03;6188516;23;20015;-91
2022/10/28 17:24:54;;;;;;;15.43;4.50;;;;;;;16.58;100.00;101821.41;6214760;23;20020;-92
2022/10/28 17:27:19;;;;;;;18.80;4.43;;;;;;;16.55;100.00;101834.69;6216561;23;20001;-91
2022/10/28 17:29:47;;;;;;;17.35;4.22;;;;;;;16.54;100.00;101836.56;6216010;23;20036;-93
2022/10/28 17:32:16;;;;;;;11.33;4.40;;;;;;;16.46;100.00;101831.72;6214706;23;20016;-90
2022/10/28 17:34:41;;;;;;;14.32;4.20;;;;;;;16.38;100.00;101840.38;6214946;23;20004;-91
2022/10/28 17:37:06;;;;;;;15.30;4.30;;;;;;;16.40;100.00;101844.47;6213312;23;20011;-93
2022/10/28 17:39:34;;;;;;;11.10;4.15;;;;;;;16.34;100.00;101843.63;6209718;23;20420;-91
2022/10/28 17:42:00;;;;;;;11.83;4.10;;;;;;;16.30;100.00;101850.69;6211341;23;20011;-92
2022/10/28 17:44:25;;;;;;;9.52;4.10;;;;;;;16.22;100.00;101837.69;6210977;23;20028;-91
2022/10/28 17:46:54;;;;;;;15.47;4.50;;;;;;;16.17;100.00;101854.75;6213703;23;20001;-90
2022/10/28 17:49:19;;;;;;;14.60;4.45;;;;;;;16.12;100.00;101864.75;6213746;23;20000;-93
2022/10/28 17:51:53;;;;;;;15.63;4.90;;;;;;;16.15;100.00;101873.13;6222907;23;20047;-94
2022/10/28 17:54:18;;;;;;;17.88;4.63;;;;;;;16.18;100.00;101882.56;6204048;23;20043;-93
2022/10/28 17:56:45;;;;;;;14.80;4.83;;;;;;;16.16;100.00;101882.84;6221295;23;20004;-92
2022/10/28 17:59:17;;;;;;;15.50;5.05;;;;;;;16.18;100.00;101891.50;6226178;23;20476;-94
2022/10/28 18:02:21;;;;;;;15.13;4.57;;;;;;;16.14;100.00;101874.19;6217453;23;20009;-93
2022/10/28 18:04:46;;;;;;;18.33;4.38;;;;;;;16.02;100.00;101854.75;6188735;23;20039;-93
2022/10/28 18:07:12;;;;;;;19.40;4.53;;;;;;;16.03;100.00;101867.97;6226347;23;20017;-92
2022/10/28 18:09:39;;;;;;;14.23;4.97;;;;;;;15.98;100.00;101861.75;6229869;23;20004;-94
2022/10/28 18:12:05;;;;;;;15.70;5.88;;;;;;;16.11;100.00;101888.25;6193633;23;20039;-93
2022/10/28 18:14:39;;;;;;;15.93;5.07;;;;;;;15.98;100.00;101872.56;6229030;23;20034;-95
2022/10/28 18:17:05;;;;;;;15.60;4.60;;;;;;;16.01;100.00;101883.66;6196547;23;20096;-93
2022/10/28 18:19:36;;;;;;;15.53;4.20;;;;;;;15.97;100.00;101879.06;6226631;23;20240;-92
2022/10/28 18:22:02;;;;;;;17.13;4.55;;;;;;;15.93;100.00;101883.38;6200504;23;20007;-93
2022/10/28 18:24:33;;;;;;;18.60;5.00;;;;;;;15.86;100.00;101887.16;6222831;23;20008;-90
2022/10/28 19:03:18;;;;;;;15.80;5.17;;;;;;;15.12;100.00;101924.13;6217846;22;20059;-96
2022/10/28 19:15:10;;;;;;;14.48;5.03;;;;;;;14.71;100.00;101896.91;6230234;22;20870;-96
2022/10/28 19:18:44;;;;;;;;;;;;;;;;;;;;;
2022/10/28 19:21:56;;;;;;;19.48;6.43;;;;;;;14.78;100.00;101927.19;6055430;23;20100;-96
2022/10/28 19:37:51;;;;;;;17.25;5.90;;;;;;;14.75;100.00;101919.59;6220760;22;20051;-96
2022/10/28 19:40:16;;;;;;;18.92;6.72;;;;;;;14.68;100.00;101930.59;6227983;23;20039;-96
2022/10/28 19:42:41;;;;;;;14.13;5.83;;;;;;;14.56;100.00;101906.47;6228579;23;19996;-96
2022/10/28 19:45:08;;;;;;;22.57;6.33;;;;;;;14.68;100.00;101942.19;6233147;23;20000;-95
2022/10/28 19:47:33;;;;;;;20.05;6.50;;;;;;;14.72;100.00;101941.69;6236253;23;20011;-96
2022/10/28 19:49:59;;;;;;;19.23;6.23;;;;;;;14.48;100.00;101909.66;6195062;23;20016;-96
2022/10/28 19:52:24;;;;;;;14.15;6.05;;;;;;;14.42;100.00;101916.09;6218207;23;20033;-96
2022/10/28 19:57:32;;;;;;;16.92;6.72;;;;;;;14.34;100.00;101917.34;6241011;22;20030;-95
2022/10/28 19:59:57;;;;;;;19.00;6.57;;;;;;;14.34;100.00;101942.44;6185393;23;20017;-96
2022/10/28 20:02:49;;;;;;;17.20;6.40;;;;;;;14.34;100.00;101957.78;6187003;23;20001;-96
2022/10/28 20:05:14;;;;;;;14.38;6.55;;;;;;;14.19;100.00;101943.09;6178592;23;20025;-96
2022/10/28 20:07:40;;;;;;;19.13;7.17;;;;;;;14.19;100.00;101956.56;6189266;23;20444;-96
2022/10/28 20:10:05;;;;;;;17.80;7.13;;;;;;;14.20;100.00;101958.19;6161628;23;20456;-96
2022/10/28 20:12:36;;;;;;;18.40;7.30;;;;;;;14.15;100.00;101963.53;6195111;23;20044;-95
2022/10/28 20:15:01;;;;;;;18.33;6.93;;;;;;;14.16;100.00;101980.53;6203486;22;20032;-95
2022/10/28 20:17:27;;;;;;;16.47;7.30;;;;;;;14.18;100.00;101981.09;6194322;23;20005;-95
2022/10/28 20:20:08;;;;;;;20.23;7.00;;;;;;;14.12;100.00;101976.72;6187271;23;20001;-95
2022/10/28 20:22:37;;;;;;;21.95;7.47;;;;;;;14.02;100.00;101958.56;6184783;23;20001;-96
2022/10/28 20:25:07;;;;;;;16.20;6.50;;;;;;;14.14;100.00;101985.38;6186132;23;20028;-96
2022/10/28 20:27:33;;;;;;;17.35;7.10;;;;;;;14.00;100.00;101966.06;6160508;23;20015;-96
2022/10/28 20:29:59;;;;;;;22.48;7.63;;;;;;;14.12;100.00;101976.72;6187521;23;20479;-96
2022/10/28 20:32:26;;;;;;;25.60;7.82;;;;;;;14.18;100.00;101986.50;6157213;23;20012;-95
2022/10/28 20:34:51;;;;;;;17.58;7.43;;;;;;;14.17;100.00;101984.88;6156955;23;20012;-94
2022/10/28 20:37:16;;;;;;;22.00;7.77;;;;;;;14.12;100.00;101985.63;6183876;23;20051;-95
2022/10/28 20:39:42;;;;;;;22.27;8.10;;;;;;;14.13;100.00;101989.94;6183732;23;20028;-96
2022/10/28 20:42:07;;;;;;;19.27;6.90;;;;;;;14.14;100.00;102005.06;6156743;23;20093;-96
2022/10/28 20:44:32;;;;;;;14.97;7.67;;;;;;;14.06;100.00;102005.50;6184710;23;20012;-94
2022/10/28 20:47:16;;;;;;;18.17;7.32;;;;;;;13.97;100.00;101996.25;6183364;23;20009;-96
2022/10/28 20:49:42;;;;;;;22.40;7.53;;;;;;;13.94;100.00;101997.53;6184463;23;20080;-96
2022/10/28 20:52:07;;;;;;;20.17;7.30;;;;;;;14.04;100.00;102027.31;6157659;23;20342;-96
2022/10/28 20:54:32;;;;;;;16.27;7.90;;;;;;;13.97;100.00;102029.38;6184617;23;20008;-95
2022/10/28 20:56:57;;;;;;;19.17;7.37;;;;;;;13.92;100.00;102019.38;6184823;23;20036;-96
2022/10/28 20:59:28;;;;;;;18.87;7.97;;;;;;;13.78;100.00;101997.38;6196231;22;20031;-94
2022/10/28 21:01:53;;;;;;;18.88;7.55;;;;;;;13.74;100.00;102014.28;6212545;23;20005;-93
2022/10/28 21:04:19;;;;;;;14.87;7.40;;;;;;;13.67;100.00;102019.03;6213946;23;20015;-94
2022/10/28 21:06:44;;;;;;;19.13;7.70;;;;;;;13.71;100.00;102023.66;6213501;23;20347;-93
2022/10/28 21:09:10;;;;;;;20.77;8.30;;;;;;;13.58;100.00;102007.88;6187338;23;20008;-94
2022/10/28 21:12:05;;;;;;;21.08;7.90;;;;;;;13.55;100.00;102017.28;6186394;23;20066;-94
2022/10/28 21:14:34;;;;;;;17.23;8.07;;;;;;;13.74;100.00;102036.63;6209740;23;20012;-95
2022/10/28 21:17:45;;;;;;;23.10;8.35;;;;;;;13.60;100.00;102019.22;6212569;23;20094;-95
2022/10/28 21:20:16;;;;;;;23.37;8.13;;;;;;;13.68;100.00;102037.66;6212810;23;20340;-94
2022/10/28 21:22:51;;;;;;;17.60;8.37;;;;;;;13.50;100.00;102013.69;6213631;23;20726;-94
2022/10/28 21:25:37;;;;;;;26.30;8.40;;;;;;;13.59;100.00;102033.75;6213774;23;20019;-94
2022/10/28 21:28:03;;;;;;;20.33;8.57;;;;;;;13.46;100.00;102024.97;6213839;23;20008;-95
2022/10/28 21:30:48;;;;;;;18.23;8.65;;;;;;;13.39;100.00;102021.59;6212831;23;20484;-94
2022/10/28 21:33:20;;;;;;;22.05;8.75;;;;;;;13.41;100.00;102027.56;6211733;23;20375;-94
2022/10/28 21:36:05;;;;;;;19.50;8.60;;;;;;;13.35;100.00;102027.72;6212807;23;20000;-94
2022/10/28 21:38:31;;;;;;;21.30;8.38;;;;;;;13.23;100.00;102003.59;6213706;23;20012;-94
2022/10/28 21:41:16;;;;;;;20.25;8.13;;;;;;;13.30;100.00;102031.16;6212301;23;20000;-95
2022/10/28 21:43:44;;;;;;;18.63;8.10;;;;;;;13.27;100.00;102029.75;6214125;23;20008;-95
2022/10/28 21:46:10;;;;;;;19.53;8.23;;;;;;;13.16;100.00;102015.34;6216776;23;20692;-95
2022/10/28 21:49:18;;;;;;;18.73;8.25;;;;;;;13.17;100.00;102016.97;6218578;23;20001;-95
2022/10/28 21:51:43;;;;;;;18.85;8.90;;;;;;;12.96;100.00;101988.13;6212595;23;20530;-95
2022/10/28 21:59:48;;;;;;;22.30;8.57;;;;;;;13.02;100.00;102027.50;6227899;22;20027;-96
2022/10/28 22:02:38;;;;;;;22.35;8.70;;;;;;;12.81;100.00;101997.56;6212885;23;20011;-95
2022/10/28 22:09:05;;;;;;;17.83;8.45;;;;;;;12.92;100.00;102030.03;6212478;23;20034;-94
2022/10/28 22:11:36;;;;;;;20.70;8.13;;;;;;;12.79;100.00;102009.66;6212245;23;20008;-95
2022/10/28 22:14:03;;;;;;;18.40;8.60;;;;;;;12.91;100.00;102025.72;6214130;23;20271;-95
2022/10/28 22:16:45;;;;;;;13.18;7.72;;;;;;;12.91;100.00;102028.41;6194542;23;20001;-94
2022/10/28 22:19:27;;;;;;;;;;;;;;;;;;;;;
2022/10/28 22:22:04;;;;;;;16.17;7.78;;;;;;;12.82;100.00;102018.03;6202208;22;20013;-95
2022/10/28 22:24:29;;;;;;;19.50;7.95;;;;;;;12.79;100.00;102020.41;6151331;23;20020;-95
2022/10/28 22:27:24;;;;;;;;;;;;;;;;;;;;;
2022/10/28 22:29:50;;;;;;;20.35;7.88;;;;;;;12.78;100.00;102008.00;6185845;23;20075;-95
2022/10/28 22:32:15;;;;;;;19.03;8.30;;;;;;;12.94;100.00;102025.22;6187876;23;20035;-96
2022/10/28 22:34:42;;;;;;;16.70;7.93;;;;;;;12.93;100.00;102028.97;6187461;23;20012;-95
2022/10/28 22:37:07;;;;;;;19.77;8.02;;;;;;;13.01;100.00;102039.31;6161206;23;20009;-95
2022/10/28 22:40:26;;;;;;;21.90;8.07;;;;;;;13.08;100.00;102045.38;6164309;23;20012;-95
2022/10/28 22:42:55;;;;;;;23.70;8.15;;;;;;;13.01;100.00;102023.19;6137716;23;20382;-95
2022/10/28 22:45:26;;;;;;;20.45;8.75;;;;;;;13.18;100.00;102050.09;6194721;22;20028;-95
2022/10/28 22:47:55;;;;;;;27.38;9.35;;;;;;;13.02;100.00;102025.63;6216500;23;20020;-94
2022/10/28 22:50:32;;;;;;;21.85;8.10;;;;;;;13.12;100.00;102041.13;6215669;23;20004;-94
2022/10/28 22:53:00;;;;;;;29.45;8.60;;;;;;;13.20;100.00;102055.22;6216197;23;20040;-95
2022/10/28 22:55:26;;;;;;;20.80;8.10;;;;;;;13.12;100.00;102046.50;6215732;23;20008;-96
2022/10/28 22:58:09;;;;;;;24.43;8.27;;;;;;;13.18;100.00;102050.91;6215961;23;20263;-95
2022/10/28 23:00:35;;;;;;;15.25;7.68;;;;;;;13.20;100.00;102052.53;6216520;23;20089;-96
2022/10/28 23:03:10;;;;;;;20.90;7.95;;;;;;;13.33;100.00;102055.69;6188837;23;20001;-96
2022/10/28 23:39:32;;;;;;;28.15;9.85;;;;;;;13.00;100.00;102038.50;6208969;22;20020;-95
2022/10/28 23:42:06;;;;;;;16.95;8.23;;;;;;;13.17;100.00;102057.34;6187644;23;20016;-94
2022/10/28 23:44:41;;;;;;;17.25;8.48;;;;;;;13.18;100.00;102042.81;6165774;23;20380;-94
2022/10/28 23:47:19;;;;;;;20.73;9.30;;;;;;;13.17;100.00;102029.63;6219966;23;20476;-96
2022/10/28 23:49:51;;;;;;;20.73;8.57;;;;;;;13.26;100.00;102040.78;6216241;23;20244;-94
2022/10/28 23:53:01;;;;;;;24.92;9.40;;;;;;;13.36;100.00;102043.63;6215957;23;20012;-95
2022/10/28 23:55:40;;;;;;;22.00;8.82;;;;;;;13.23;100.00;102031.34;6187905;22;20104;-95
2022/10/28 23:58:21;;;;;;;20.58;9.48;;;;;;;13.12;100.00;102019.59;6214659;23;20008;-95
